createdAt,value
2017-07-23T00:01:55.264Z,37.43
2017-07-23T00:04:21.543Z,41.57
2017-07-23T00:06:47.796Z,33.90
2017-07-23T00:09:14.785Z,36.77
2017-07-23T00:11:41.202Z,45.87
2017-07-23T00:14:07.446Z,38.03
2017-07-23T00:16:33.672Z,41.73
2017-07-23T00:19:00.724Z,40.20
2017-07-23T00:21:26.954Z,35.17
2017-07-23T00:23:53.950Z,40.30
2017-07-23T00:26:20.226Z,45.07
2017-07-23T00:28:46.455Z,43.63
2017-07-23T00:31:15.775Z,36.20
2017-07-23T00:33:42.773Z,51.67
2017-07-23T00:36:09.016Z,46.23
2017-07-23T00:38:35.282Z,42.97
2017-07-23T00:41:03.179Z,49.60
2017-07-23T00:43:30.176Z,46.70
2017-07-23T00:45:56.422Z,47.97
2017-07-23T00:48:22.667Z,47.20
2017-07-23T00:50:48.918Z,75.83
2017-07-23T00:53:15.911Z,54.53
2017-07-23T00:55:42.291Z,46.93
2017-07-23T00:58:08.518Z,51.60
2017-07-23T01:00:34.743Z,47.20
2017-07-23T01:03:01.914Z,42.70
2017-07-23T01:05:28.194Z,52.80
2017-07-23T01:07:54.424Z,47.23
2017-07-23T01:10:20.862Z,41.17
2017-07-23T01:12:47.839Z,49.53
2017-07-23T01:15:14.079Z,51.30
2017-07-23T01:17:40.366Z,46.17
2017-07-23T01:20:07.344Z,42.70
2017-07-23T01:22:33.596Z,47.50
2017-07-23T01:25:00.621Z,52.70
2017-07-23T01:27:27.615Z,46.63
2017-07-23T01:29:53.887Z,40.03
2017-07-23T01:32:22.189Z,40.80
2017-07-23T01:34:48.425Z,40.93
2017-07-23T01:37:14.683Z,42.97
2017-07-23T01:39:40.954Z,40.70
2017-07-23T01:42:07.203Z,49.77
2017-07-23T01:44:33.453Z,43.17
2017-07-23T01:47:00.215Z,53.83
2017-07-23T01:49:26.481Z,40.63
2017-07-23T01:51:52.725Z,52.70
2017-07-23T01:54:19.018Z,42.87
2017-07-23T01:56:45.258Z,49.30
2017-07-23T01:59:11.554Z,46.23
2017-07-23T02:01:37.810Z,47.57
2017-07-23T02:04:04.793Z,51.37
2017-07-23T02:06:31.039Z,48.70
2017-07-23T02:08:58.266Z,39.87
2017-07-23T02:11:25.255Z,48.10
2017-07-23T02:13:51.490Z,51.73
2017-07-23T02:16:17.778Z,46.90
2017-07-23T02:18:44.751Z,51.03
2017-07-23T02:21:11.014Z,44.53
2017-07-23T02:23:37.356Z,49.37
2017-07-23T02:26:03.603Z,45.93
2017-07-23T02:28:29.878Z,41.10
2017-07-23T02:30:56.922Z,50.00
2017-07-23T02:33:25.403Z,46.60
2017-07-23T02:35:51.635Z,44.37
2017-07-23T02:38:18.659Z,52.00
2017-07-23T02:40:44.890Z,51.53
2017-07-23T02:43:11.106Z,51.90
2017-07-23T02:45:37.393Z,57.67
2017-07-23T02:48:04.390Z,44.63
2017-07-23T02:50:30.634Z,52.27
2017-07-23T02:52:56.968Z,49.50
2017-07-23T02:55:23.203Z,52.87
2017-07-23T02:57:49.425Z,52.10
2017-07-23T03:00:16.479Z,47.30
2017-07-23T03:02:42.714Z,53.70
2017-07-23T03:05:08.937Z,53.53
2017-07-23T03:07:35.990Z,54.40
2017-07-23T03:10:02.954Z,53.93
2017-07-23T03:12:29.196Z,51.50
2017-07-23T03:17:28.390Z,54.00
2017-07-23T03:19:55.361Z,64.20
2017-07-23T03:22:21.594Z,55.03
2017-07-23T03:24:47.862Z,52.87
2017-07-23T03:27:14.106Z,58.80
2017-07-23T03:29:40.337Z,53.00
2017-07-23T03:32:06.641Z,56.23
2017-07-23T03:34:37.339Z,57.40
2017-07-23T03:37:03.595Z,57.93
2017-07-23T03:39:31.459Z,57.57
2017-07-23T03:41:57.754Z,52.70
2017-07-23T03:44:24.014Z,53.23
2017-07-23T03:46:51.188Z,53.67
2017-07-23T03:49:17.454Z,54.00
2017-07-23T03:51:43.690Z,54.80
2017-07-23T03:54:10.797Z,56.33
2017-07-23T03:56:37.806Z,49.23
2017-07-23T03:59:04.077Z,49.10
2017-07-23T04:01:31.653Z,46.13
2017-07-23T04:03:57.985Z,40.60
2017-07-23T04:06:24.291Z,48.23
2017-07-23T04:08:50.579Z,40.90
2017-07-23T04:11:16.847Z,49.33
2017-07-23T04:13:43.085Z,37.07
2017-07-23T04:16:09.360Z,38.47
2017-07-23T04:18:36.383Z,38.87
2017-07-23T04:21:11.992Z,42.43
2017-07-23T04:23:38.286Z,43.50
2017-07-23T04:26:05.662Z,43.80
2017-07-23T04:28:32.665Z,38.23
2017-07-23T04:30:58.890Z,42.47
2017-07-23T04:33:25.113Z,44.13
2017-07-23T04:36:00.948Z,37.33
2017-07-23T04:38:28.388Z,40.20
2017-07-23T04:40:54.619Z,46.37
2017-07-23T04:43:21.081Z,41.00
2017-07-23T04:45:48.051Z,44.77
2017-07-23T04:48:14.306Z,51.77
2017-07-23T04:50:40.615Z,47.47
2017-07-23T04:53:06.900Z,46.87
2017-07-23T04:55:33.910Z,48.63
2017-07-23T04:58:00.153Z,48.93
2017-07-23T05:00:26.387Z,46.67
2017-07-23T05:02:52.610Z,42.47
2017-07-23T05:05:19.490Z,45.77
2017-07-23T05:07:45.724Z,44.30
2017-07-23T05:10:11.989Z,42.60
2017-07-23T05:12:38.368Z,36.93
2017-07-23T05:15:04.633Z,41.90
2017-07-23T05:17:30.881Z,35.80
2017-07-23T05:19:57.266Z,37.93
2017-07-23T05:22:23.502Z,33.10
2017-07-23T05:24:49.741Z,35.33
2017-07-23T05:27:16.900Z,34.93
2017-07-23T05:29:43.150Z,30.10
2017-07-23T05:32:09.406Z,29.83
2017-07-23T05:34:35.708Z,31.40
2017-07-23T05:37:04.690Z,29.60
2017-07-23T05:39:30.956Z,33.47
2017-07-23T05:41:57.233Z,26.43
2017-07-23T05:44:23.466Z,24.07
2017-07-23T05:46:49.695Z,25.17
2017-07-23T05:51:49.444Z,25.40
2017-07-23T05:54:16.484Z,26.17
2017-07-23T05:56:42.744Z,27.27
2017-07-23T05:59:09.027Z,23.63
2017-07-23T06:01:35.303Z,22.10
2017-07-23T06:04:01.541Z,22.20
2017-07-23T06:06:28.715Z,21.73
2017-07-23T06:08:55.723Z,25.30
2017-07-23T06:11:21.971Z,25.13
2017-07-23T06:13:49.056Z,26.03
2017-07-23T06:16:15.319Z,34.33
2017-07-23T06:18:41.574Z,28.50
2017-07-23T06:21:08.066Z,34.40
2017-07-23T06:23:35.055Z,37.57
2017-07-23T06:26:01.327Z,41.30
2017-07-23T06:28:27.645Z,33.67
2017-07-23T06:30:53.887Z,35.83
2017-07-23T06:33:20.131Z,37.27
2017-07-23T06:35:46.703Z,39.80
2017-07-23T06:38:25.303Z,38.00
2017-07-23T06:40:52.312Z,33.90
2017-07-23T06:43:18.558Z,38.10
2017-07-23T06:45:44.807Z,47.00
2017-07-23T06:48:11.136Z,48.43
2017-07-23T06:50:37.372Z,45.90
2017-07-23T06:53:03.610Z,51.13
2017-07-23T06:55:30.392Z,45.17
2017-07-23T06:57:57.353Z,44.60
2017-07-23T07:00:23.631Z,46.43
2017-07-23T07:02:49.903Z,54.23
2017-07-23T07:05:16.891Z,44.73
2017-07-23T07:07:43.118Z,48.67
2017-07-23T07:10:09.372Z,48.17
2017-07-23T07:12:35.605Z,48.13
2017-07-23T07:15:01.846Z,41.40
2017-07-23T07:17:28.962Z,45.23
2017-07-23T07:19:56.119Z,47.13
2017-07-23T07:22:22.387Z,41.43
2017-07-23T07:24:49.606Z,39.70
2017-07-23T07:27:16.619Z,32.73
2017-07-23T07:29:42.868Z,30.77
2017-07-23T07:32:09.163Z,32.83
2017-07-23T07:34:35.434Z,35.77
2017-07-23T07:37:02.439Z,37.60
2017-07-23T07:39:46.560Z,30.40
2017-07-23T07:42:13.536Z,26.57
2017-07-23T07:44:39.810Z,25.60
2017-07-23T07:47:06.076Z,23.83
2017-07-23T07:49:33.048Z,24.07
2017-07-23T07:51:59.338Z,25.03
2017-07-23T07:54:25.610Z,23.00
2017-07-23T07:56:51.903Z,21.40
2017-07-23T07:59:25.033Z,18.57
2017-07-23T08:01:52.023Z,18.67
2017-07-23T08:04:18.279Z,17.13
2017-07-23T08:06:44.533Z,17.13
2017-07-23T08:09:11.558Z,15.13
2017-07-23T08:11:37.787Z,14.90
2017-07-23T08:14:04.055Z,16.60
2017-07-23T08:16:30.283Z,15.93
2017-07-23T08:18:56.521Z,19.30
2017-07-23T08:21:23.593Z,18.90
2017-07-23T08:23:49.832Z,15.43
2017-07-23T08:26:16.811Z,18.50
2017-07-23T08:28:43.102Z,12.80
2017-07-23T08:31:10.204Z,13.10
2017-07-23T08:33:36.561Z,10.13
2017-07-23T08:36:02.824Z,9.00
2017-07-23T08:38:29.063Z,8.10
2017-07-23T08:40:57.906Z,10.50
2017-07-23T08:43:24.277Z,9.33
2017-07-23T08:45:50.510Z,10.53
2017-07-23T08:48:16.749Z,9.90
2017-07-23T08:50:43.796Z,10.27
2017-07-23T08:53:10.078Z,8.27
2017-07-23T08:55:37.132Z,11.93
2017-07-23T08:58:03.418Z,8.07
2017-07-23T09:00:29.669Z,6.87
2017-07-23T09:02:56.015Z,15.83
2017-07-23T09:05:23.495Z,14.90
2017-07-23T09:07:49.782Z,20.23
2017-07-23T09:10:16.046Z,9.73
2017-07-23T09:12:42.309Z,11.40
2017-07-23T09:15:08.558Z,10.53
2017-07-23T09:17:34.808Z,9.77
2017-07-23T09:20:01.060Z,12.13
2017-07-23T09:22:27.427Z,10.40
2017-07-23T09:24:54.412Z,9.63
2017-07-23T09:27:20.978Z,10.83
2017-07-23T09:29:47.210Z,9.87
2017-07-23T09:32:13.447Z,11.97
2017-07-23T09:34:39.699Z,11.87
2017-07-23T09:37:06.051Z,12.30
2017-07-23T09:39:33.047Z,13.53
2017-07-23T09:41:59.776Z,12.67
2017-07-23T09:44:26.046Z,9.37
2017-07-23T09:46:52.275Z,10.03
2017-07-23T09:51:52.089Z,9.20
2017-07-23T09:54:18.366Z,8.43
2017-07-23T09:56:44.591Z,9.40
2017-07-23T09:59:10.992Z,8.10
2017-07-23T10:01:37.234Z,8.20
2017-07-23T10:04:04.198Z,7.37
2017-07-23T10:06:30.450Z,13.47
2017-07-23T10:08:56.695Z,7.50
2017-07-23T10:11:22.942Z,7.10
2017-07-23T10:13:49.531Z,6.33
2017-07-23T10:16:15.790Z,6.63
2017-07-23T10:18:42.030Z,7.50
2017-07-23T10:21:08.346Z,7.20
2017-07-23T10:23:34.605Z,8.80
2017-07-23T10:26:00.839Z,8.20
2017-07-23T10:28:27.106Z,10.53
2017-07-23T10:30:53.343Z,9.10
2017-07-23T10:33:19.589Z,9.57
2017-07-23T10:35:46.256Z,9.20
2017-07-23T10:38:12.546Z,9.77
2017-07-23T10:40:38.787Z,8.93
2017-07-23T10:43:07.318Z,10.67
2017-07-23T10:45:34.327Z,9.10
2017-07-23T10:48:00.578Z,9.87
2017-07-23T10:50:26.825Z,9.70
2017-07-23T10:52:53.102Z,10.47
2017-07-23T10:55:19.325Z,9.63
2017-07-23T10:57:45.630Z,9.87
2017-07-23T11:00:11.908Z,9.83
2017-07-23T11:02:38.148Z,13.17
2017-07-23T11:05:04.399Z,11.17
2017-07-23T11:07:30.670Z,10.93
2017-07-23T11:09:56.920Z,10.77
2017-07-23T11:12:23.171Z,10.83
2017-07-23T11:14:49.410Z,11.10
2017-07-23T11:17:15.653Z,11.80
2017-07-23T11:19:41.973Z,11.23
2017-07-23T11:22:08.349Z,13.97
2017-07-23T11:24:35.497Z,12.03
2017-07-23T11:27:02.972Z,16.63
2017-07-23T11:29:29.352Z,11.97
2017-07-23T11:31:55.730Z,17.13
2017-07-23T11:34:22.898Z,12.00
2017-07-23T11:36:49.517Z,11.83
2017-07-23T11:39:15.892Z,12.67
2017-07-23T11:41:43.559Z,12.00
2017-07-23T11:44:10.625Z,15.00
2017-07-23T11:46:37.039Z,11.93
2017-07-23T11:49:04.182Z,12.27
2017-07-23T11:51:31.117Z,12.03
2017-07-23T11:53:58.248Z,11.60
2017-07-23T11:56:24.666Z,11.23
2017-07-23T11:58:51.024Z,11.23
2017-07-23T12:01:17.402Z,12.37
2017-07-23T12:03:45.151Z,11.60
2017-07-23T12:06:11.574Z,19.47
2017-07-23T12:08:37.859Z,12.40
2017-07-23T12:11:04.121Z,11.80
2017-07-23T12:13:31.154Z,12.97
2017-07-23T12:15:58.163Z,15.50
2017-07-23T12:18:24.595Z,12.97
2017-07-23T12:20:50.850Z,9.93
2017-07-23T12:23:17.067Z,14.60
2017-07-23T12:25:44.115Z,7.77
2017-07-23T12:28:10.357Z,5.93
2017-07-23T12:30:36.586Z,5.43
2017-07-23T12:33:02.886Z,5.97
2017-07-23T12:35:29.146Z,11.60
2017-07-23T12:37:56.118Z,9.50
2017-07-23T12:40:22.418Z,6.47
2017-07-23T12:42:49.412Z,5.40
2017-07-23T12:45:28.947Z,5.23
2017-07-23T12:47:56.050Z,7.30
2017-07-23T12:50:23.054Z,6.20
2017-07-23T12:52:49.334Z,9.03
2017-07-23T12:55:16.341Z,6.70
2017-07-23T12:57:42.591Z,8.20
2017-07-23T13:00:08.851Z,8.87
2017-07-23T13:02:35.085Z,14.87
2017-07-23T13:05:01.333Z,8.53
2017-07-23T13:07:27.785Z,7.47
2017-07-23T13:09:54.793Z,9.90
2017-07-23T13:12:21.046Z,9.40
2017-07-23T13:14:47.308Z,7.90
2017-07-23T13:17:14.294Z,9.13
2017-07-23T13:19:40.518Z,8.93
2017-07-23T13:22:06.767Z,9.80
2017-07-23T13:24:33.000Z,8.60
2017-07-23T13:26:59.235Z,9.83
2017-07-23T13:29:25.511Z,6.70
2017-07-23T13:31:51.791Z,5.33
2017-07-23T13:34:18.052Z,6.37
2017-07-23T13:36:44.342Z,4.20
2017-07-23T13:39:11.330Z,7.00
2017-07-23T13:41:37.569Z,6.63
2017-07-23T13:44:03.831Z,9.80
2017-07-23T13:46:30.076Z,9.90
2017-07-23T13:48:57.246Z,5.30
2017-07-23T13:51:23.534Z,4.57
2017-07-23T13:53:49.789Z,6.70
2017-07-23T13:56:16.021Z,7.50
2017-07-23T13:58:42.777Z,7.93
2017-07-23T14:01:09.029Z,5.73
2017-07-23T14:03:35.284Z,5.50
2017-07-23T14:06:01.642Z,4.63
2017-07-23T14:08:27.886Z,8.30
2017-07-23T14:10:54.126Z,4.97
2017-07-23T14:13:20.366Z,6.50
2017-07-23T14:15:46.611Z,6.27
2017-07-23T14:18:12.843Z,10.60
2017-07-23T14:20:39.954Z,4.97
2017-07-23T14:23:06.227Z,3.10
2017-07-23T14:25:32.515Z,4.17
2017-07-23T14:27:59.702Z,3.73
2017-07-23T14:30:26.018Z,6.50
2017-07-23T14:32:52.258Z,4.20
2017-07-23T14:35:18.688Z,4.73
2017-07-23T14:37:45.683Z,4.93
2017-07-23T14:40:11.932Z,4.00
2017-07-23T14:42:39.034Z,5.20
2017-07-23T14:45:06.026Z,3.10
2017-07-23T14:47:32.255Z,6.00
2017-07-23T14:50:09.505Z,3.97
2017-07-23T14:52:36.500Z,4.13
2017-07-23T14:55:02.789Z,8.03
2017-07-23T14:57:29.082Z,14.10
2017-07-23T14:59:55.335Z,5.77
2017-07-23T15:02:21.578Z,4.57
2017-07-23T15:04:49.160Z,3.70
2017-07-23T15:07:17.018Z,3.20
2017-07-23T15:09:43.998Z,5.23
2017-07-23T15:12:10.251Z,3.07
2017-07-23T15:14:36.542Z,7.37
2017-07-23T15:17:03.555Z,4.67
2017-07-23T15:19:29.832Z,4.40
2017-07-23T15:21:56.818Z,3.07
2017-07-23T15:24:23.058Z,5.23
2017-07-23T15:26:49.346Z,6.90
2017-07-23T15:29:16.337Z,3.07
2017-07-23T15:31:42.598Z,4.70
2017-07-23T15:34:08.855Z,4.83
2017-07-23T15:36:35.121Z,5.60
2017-07-23T15:39:01.393Z,4.47
2017-07-23T15:41:27.658Z,3.90
2017-07-23T15:43:54.657Z,6.43
2017-07-23T15:46:20.886Z,4.70
2017-07-23T15:48:47.842Z,9.57
2017-07-23T15:51:14.164Z,13.83
2017-07-23T15:53:41.142Z,6.43
2017-07-23T15:56:07.405Z,5.60
2017-07-23T15:58:33.676Z,4.43
2017-07-23T16:01:00.641Z,7.00
2017-07-23T16:03:26.893Z,9.93
2017-07-23T16:05:53.125Z,6.70
2017-07-23T16:08:19.370Z,3.50
2017-07-23T16:10:45.702Z,3.20
2017-07-23T16:13:11.962Z,3.97
2017-07-23T16:15:38.182Z,5.57
2017-07-23T16:18:04.442Z,3.57
2017-07-23T16:20:30.676Z,3.57
2017-07-23T16:22:56.931Z,5.40
2017-07-23T16:25:24.108Z,3.57
2017-07-23T16:27:50.343Z,4.30
2017-07-23T16:30:17.309Z,2.87
2017-07-23T16:32:43.633Z,11.20
2017-07-23T16:35:09.879Z,6.43
2017-07-23T16:37:36.110Z,14.40
2017-07-23T16:40:02.543Z,9.53
2017-07-23T16:42:28.841Z,3.97
2017-07-23T16:44:55.081Z,3.90
2017-07-23T16:47:21.350Z,3.00
2017-07-23T16:49:48.321Z,4.33
2017-07-23T16:52:15.019Z,4.40
2017-07-23T16:54:41.699Z,3.63
2017-07-23T16:57:08.013Z,2.90
2017-07-23T16:59:34.283Z,4.10
2017-07-23T17:02:00.588Z,4.17
2017-07-23T17:04:27.556Z,10.33
2017-07-23T17:06:53.787Z,8.07
2017-07-23T17:09:20.078Z,5.20
2017-07-23T17:11:46.329Z,6.37
2017-07-23T17:14:12.577Z,4.97
2017-07-23T17:16:39.613Z,5.43
2017-07-23T17:19:06.614Z,5.30
2017-07-23T17:21:32.862Z,8.47
2017-07-23T17:23:59.287Z,8.13
2017-07-23T17:26:25.537Z,3.73
2017-07-23T17:28:51.815Z,6.03
2017-07-23T17:31:18.826Z,5.30
2017-07-23T17:33:45.113Z,4.80
2017-07-23T17:36:11.348Z,4.40
2017-07-23T17:38:39.052Z,5.20
2017-07-23T17:41:05.297Z,10.20
2017-07-23T17:43:31.579Z,6.20
2017-07-23T17:45:58.621Z,5.80
2017-07-23T17:48:24.883Z,7.50
2017-07-23T17:50:51.144Z,6.20
2017-07-23T17:53:18.172Z,8.50
2017-07-23T17:55:45.156Z,11.67
2017-07-23T17:58:11.417Z,14.07
2017-07-23T18:00:37.777Z,24.93
2017-07-23T18:03:04.051Z,6.90
2017-07-23T18:05:30.304Z,7.03
2017-07-23T18:07:56.819Z,5.03
2017-07-23T18:10:23.781Z,6.97
2017-07-23T18:12:50.065Z,6.57
2017-07-23T18:15:16.359Z,7.60
2017-07-23T18:17:42.586Z,5.20
2017-07-23T18:20:08.849Z,9.30
2017-07-23T18:22:35.855Z,10.60
2017-07-23T18:25:03.658Z,5.10
2017-07-23T18:27:36.977Z,3.00
2017-07-23T18:30:03.235Z,3.57
2017-07-23T18:32:29.511Z,1.73
2017-07-23T18:34:55.810Z,3.73
2017-07-23T18:37:22.802Z,3.10
2017-07-23T18:39:49.076Z,3.00
2017-07-23T18:42:15.391Z,4.17
2017-07-23T18:44:41.640Z,18.57
2017-07-23T18:47:07.889Z,22.93
2017-07-23T18:49:34.153Z,14.83
2017-07-23T18:52:01.126Z,4.37
2017-07-23T18:54:27.749Z,4.10
2017-07-23T18:56:54.741Z,2.17
2017-07-23T18:59:21.023Z,2.63
2017-07-23T19:01:48.058Z,4.13
2017-07-23T19:04:14.858Z,3.33
2017-07-23T19:06:41.095Z,2.90
2017-07-23T19:09:07.426Z,3.73
2017-07-23T19:11:33.770Z,4.20
2017-07-23T19:14:00.019Z,6.93
2017-07-23T19:16:26.322Z,9.43
2017-07-23T19:18:52.640Z,7.07
2017-07-23T19:21:19.630Z,3.70
2017-07-23T19:23:45.895Z,4.70
2017-07-23T19:26:12.408Z,67.10
2017-07-23T19:28:38.721Z,38.77
2017-07-23T19:31:04.962Z,20.70
2017-07-23T19:33:31.222Z,11.27
2017-07-23T19:35:57.487Z,7.33
2017-07-23T19:38:23.734Z,2.60
2017-07-23T19:40:50.778Z,2.03
2017-07-23T19:43:17.022Z,4.00
2017-07-23T19:45:43.306Z,8.10
2017-07-23T19:48:09.634Z,6.30
2017-07-23T19:50:35.955Z,5.13
2017-07-23T19:53:02.295Z,31.53
2017-07-23T19:55:29.741Z,75.83
2017-07-23T19:57:56.071Z,141.13
2017-07-23T20:00:22.494Z,33.80
2017-07-23T20:02:49.010Z,10.20
2017-07-23T20:05:16.075Z,8.43
2017-07-23T20:07:42.400Z,4.50
2017-07-23T20:10:09.023Z,4.33
2017-07-23T20:12:35.285Z,4.70
2017-07-23T20:15:01.553Z,2.60
2017-07-23T20:17:27.840Z,2.67
2017-07-23T20:19:54.099Z,5.57
2017-07-23T20:22:20.396Z,3.07
2017-07-23T20:24:46.687Z,3.23
2017-07-23T20:27:12.958Z,5.80
2017-07-23T20:29:39.207Z,7.23
2017-07-23T20:32:06.039Z,2.43
2017-07-23T20:34:33.119Z,3.83
2017-07-23T20:36:59.391Z,4.33
2017-07-23T20:39:25.679Z,2.70
2017-07-23T20:41:51.970Z,7.17
2017-07-23T20:44:18.234Z,4.90
2017-07-23T20:46:44.507Z,4.83
2017-07-23T20:49:10.754Z,8.40
2017-07-23T20:51:37.031Z,9.60
2017-07-23T20:54:03.329Z,2.00
2017-07-23T20:56:30.223Z,4.40
2017-07-23T20:58:57.198Z,7.43
2017-07-23T21:01:24.024Z,5.87
2017-07-23T21:03:50.279Z,3.00
2017-07-23T21:06:16.566Z,11.73
2017-07-23T21:08:42.828Z,31.23
2017-07-23T21:11:09.109Z,24.80
2017-07-23T21:13:35.401Z,28.20
2017-07-23T21:16:01.701Z,5.93
2017-07-23T21:18:27.959Z,2.83
2017-07-23T21:20:54.981Z,3.57
2017-07-23T21:23:21.780Z,3.00
2017-07-23T21:25:48.060Z,3.80
2017-07-23T21:28:14.379Z,1.40
2017-07-23T21:30:40.788Z,2.27
2017-07-23T21:33:07.766Z,5.47
2017-07-23T21:35:33.996Z,1.80
2017-07-23T21:38:00.295Z,2.03
2017-07-23T21:40:27.267Z,1.80
2017-07-23T21:42:54.898Z,5.33
2017-07-23T21:45:21.976Z,66.90
2017-07-23T21:47:48.202Z,51.00
2017-07-23T21:50:15.169Z,35.00
2017-07-23T21:52:41.454Z,11.07
2017-07-23T21:55:07.684Z,4.97
2017-07-23T21:57:35.275Z,3.53
2017-07-23T22:00:01.740Z,3.17
2017-07-23T22:02:27.977Z,4.80
2017-07-23T22:04:54.941Z,3.37
2017-07-23T22:07:21.974Z,2.73
2017-07-23T22:09:48.217Z,2.30
2017-07-23T22:12:14.472Z,3.57
2017-07-23T22:14:40.830Z,4.73
2017-07-23T22:17:07.238Z,3.13
2017-07-23T22:19:33.456Z,6.73
2017-07-23T22:21:59.720Z,4.77
2017-07-23T22:24:26.035Z,2.30
2017-07-23T22:26:53.015Z,4.93
2017-07-23T22:29:19.723Z,2.70
2017-07-23T22:31:46.009Z,2.43
2017-07-23T22:34:12.257Z,2.70
2017-07-23T22:36:38.516Z,6.97
2017-07-23T22:39:05.501Z,58.30
2017-07-23T22:41:31.767Z,54.47
2017-07-23T22:43:59.422Z,29.23
2017-07-23T22:46:25.690Z,4.90
2017-07-23T22:48:52.689Z,2.57
2017-07-23T22:51:19.728Z,2.90
2017-07-23T22:53:45.982Z,5.70
2017-07-23T22:56:12.202Z,3.43
2017-07-23T22:58:49.488Z,4.00
2017-07-23T23:01:15.779Z,3.77
2017-07-23T23:03:42.795Z,2.23
2017-07-23T23:06:09.042Z,2.10
2017-07-23T23:08:35.278Z,3.07
2017-07-23T23:11:01.506Z,2.90
2017-07-23T23:13:28.305Z,4.70
2017-07-23T23:15:55.294Z,3.27
2017-07-23T23:18:21.525Z,4.80
2017-07-23T23:20:47.804Z,3.10
2017-07-23T23:23:14.039Z,5.00
2017-07-23T23:25:40.284Z,3.20
2017-07-23T23:28:06.543Z,17.77
2017-07-23T23:30:33.557Z,54.53
2017-07-23T23:32:59.795Z,39.43
2017-07-23T23:35:26.887Z,31.17
2017-07-23T23:37:53.140Z,5.03
2017-07-23T23:40:19.390Z,2.70
2017-07-23T23:42:45.646Z,4.73
2017-07-23T23:45:13.322Z,2.40
2017-07-23T23:47:39.557Z,3.27
2017-07-23T23:50:05.822Z,2.33
2017-07-23T23:52:32.847Z,2.83
2017-07-23T23:54:59.092Z,7.33
2017-07-23T23:57:26.137Z,7.13
